sensor_id;sensor_type;location;lat;lon;timestamp;pressure;altitude;pressure_sealevel;temperature;humidity
56400;BME280;42298;53.638;9.876;2023-04-01T00:00:02;99286.38;;;14.32;74.34
56400;BME280;42298;53.638;9.876;2023-04-01T00:02:28;99259.28;;;14.22;74.30
56400;BME280;42298;53.638;9.876;2023-04-01T00:04:53;99272.84;;;14.27;74.30
56400;BME280;42298;53.638;9.876;2023-04-01T00:07:18;99296.03;;;14.41;73.70
56400;BME280;42298;53.638;9.876;2023-04-01T00:09:44;99299.94;;;14.37;74.10
56400;BME280;42298;53.638;9.876;2023-04-01T00:12:09;99279.09;;;14.24;74.05
56400;BME280;42298;53.638;9.876;2023-04-01T00:14:34;99276.94;;;14.14;74.79
56400;BME280;42298;53.638;9.876;2023-04-01T00:17:02;99288.66;;;14.26;74.48
56400;BME280;42298;53.638;9.876;2023-04-01T00:19:27;99291.22;;;14.38;74.09
56400;BME280;42298;53.638;9.876;2023-04-01T00:21:53;99294.88;;;14.42;73.86
56400;BME280;42298;53.638;9.876;2023-04-01T00:24:18;99298.78;;;14.41;73.43
56400;BME280;42298;53.638;9.876;2023-04-01T00:26:44;99303.22;;;14.46;73.45
56400;BME280;42298;53.638;9.876;2023-04-01T00:29:09;99294.06;;;14.42;73.96
56400;BME280;42298;53.638;9.876;2023-04-01T00:31:35;99277.50;;;14.23;74.12
56400;BME280;42298;53.638;9.876;2023-04-01T00:34:00;99299.78;;;14.30;74.02
56400;BME280;42298;53.638;9.876;2023-04-01T00:36:25;99303.56;;;14.41;73.74
56400;BME280;42298;53.638;9.876;2023-04-01T00:38:51;99304.69;;;14.40;73.80
56400;BME280;42298;53.638;9.876;2023-04-01T00:41:17;99301.53;;;14.38;73.66
56400;BME280;42298;53.638;9.876;2023-04-01T00:43:46;99298.31;;;14.36;74.08
56400;BME280;42298;53.638;9.876;2023-04-01T00:46:11;99297.34;;;14.25;73.68
56400;BME280;42298;53.638;9.876;2023-04-01T00:48:47;99292.28;;;14.30;74.18
56400;BME280;42298;53.638;9.876;2023-04-01T00:51:25;99306.22;;;14.34;73.66
56400;BME280;42298;53.638;9.876;2023-04-01T00:53:54;99299.75;;;14.26;74.02
56400;BME280;42298;53.638;9.876;2023-04-01T00:56:38;99297.34;;;14.25;74.24
56400;BME280;42298;53.638;9.876;2023-04-01T00:59:14;99302.88;;;14.25;74.53
56400;BME280;42298;53.638;9.876;2023-04-01T01:01:41;99303.44;;;14.15;74.99
56400;BME280;42298;53.638;9.876;2023-04-01T01:04:06;99288.06;;;13.95;74.88
56400;BME280;42298;53.638;9.876;2023-04-01T01:07:07;99281.78;;;13.98;74.82
56400;BME280;42298;53.638;9.876;2023-04-01T01:12:18;99295.38;;;14.06;75.15
56400;BME280;42298;53.638;9.876;2023-04-01T01:14:58;99294.72;;;14.13;75.13
56400;BME280;42298;53.638;9.876;2023-04-01T01:25:47;99299.75;;;14.07;74.42
56400;BME280;42298;53.638;9.876;2023-04-01T01:31:24;99312.59;;;13.96;75.18
56400;BME280;42298;53.638;9.876;2023-04-01T01:34:20;99309.38;;;13.94;75.65
56400;BME280;42298;53.638;9.876;2023-04-01T01:36:53;99299.66;;;13.81;75.09
56400;BME280;42298;53.638;9.876;2023-04-01T01:39:24;99291.19;;;13.74;75.75
56400;BME280;42298;53.638;9.876;2023-04-01T01:41:53;99314.34;;;13.85;75.52
56400;BME280;42298;53.638;9.876;2023-04-01T01:44:21;99317.63;;;13.91;75.64
56400;BME280;42298;53.638;9.876;2023-04-01T01:46:48;99308.38;;;13.83;75.52
56400;BME280;42298;53.638;9.876;2023-04-01T01:49:15;99285.97;;;13.69;75.66
56400;BME280;42298;53.638;9.876;2023-04-01T01:51:41;99296.81;;;13.78;76.21
56400;BME280;42298;53.638;9.876;2023-04-01T01:54:14;99303.66;;;13.84;75.52
56400;BME280;42298;53.638;9.876;2023-04-01T01:56:41;99320.38;;;13.91;75.95
56400;BME280;42298;53.638;9.876;2023-04-01T01:59:10;99319.22;;;13.92;75.78
56400;BME280;42298;53.638;9.876;2023-04-01T02:01:39;99328.41;;;13.96;75.29
56400;BME280;42298;53.638;9.876;2023-04-01T02:04:07;99317.25;;;13.92;75.48
56400;BME280;42298;53.638;9.876;2023-04-01T02:06:38;99334.38;;;13.98;75.50
56400;BME280;42298;53.638;9.876;2023-04-01T02:09:07;99322.00;;;13.92;75.18
56400;BME280;42298;53.638;9.876;2023-04-01T02:12:03;99328.75;;;13.94;75.54
56400;BME280;42298;53.638;9.876;2023-04-01T02:14:37;99317.13;;;13.85;75.80
56400;BME280;42298;53.638;9.876;2023-04-01T02:17:17;99320.63;;;13.82;76.04
56400;BME280;42298;53.638;9.876;2023-04-01T02:19:49;99334.59;;;13.89;75.94
56400;BME280;42298;53.638;9.876;2023-04-01T02:22:20;99321.78;;;13.81;75.49
56400;BME280;42298;53.638;9.876;2023-04-01T02:24:49;99301.41;;;13.70;75.83
56400;BME280;42298;53.638;9.876;2023-04-01T02:27:15;99333.22;;;13.80;75.98
56400;BME280;42298;53.638;9.876;2023-04-01T02:29:41;99334.00;;;13.80;75.41
56400;BME280;42298;53.638;9.876;2023-04-01T02:32:07;99340.72;;;13.79;76.19
56400;BME280;42298;53.638;9.876;2023-04-01T02:34:34;99337.09;;;13.75;75.96
56400;BME280;42298;53.638;9.876;2023-04-01T02:37:00;99339.25;;;13.85;76.28
56400;BME280;42298;53.638;9.876;2023-04-01T02:39:25;99320.41;;;13.72;76.37
56400;BME280;42298;53.638;9.876;2023-04-01T02:41:51;99321.72;;;13.78;75.96
56400;BME280;42298;53.638;9.876;2023-04-01T02:44:17;99335.47;;;13.74;75.94
56400;BME280;42298;53.638;9.876;2023-04-01T02:46:43;99306.72;;;13.60;75.81
56400;BME280;42298;53.638;9.876;2023-04-01T02:49:08;99338.22;;;13.74;76.03
56400;BME280;42298;53.638;9.876;2023-04-01T02:51:34;99330.25;;;13.69;75.93
56400;BME280;42298;53.638;9.876;2023-04-01T02:54:00;99344.72;;;13.82;75.89
56400;BME280;42298;53.638;9.876;2023-04-01T02:56:25;99345.38;;;13.75;76.00
56400;BME280;42298;53.638;9.876;2023-04-01T02:58:51;99324.50;;;13.59;75.65
56400;BME280;42298;53.638;9.876;2023-04-01T03:01:17;99351.34;;;13.77;75.49
56400;BME280;42298;53.638;9.876;2023-04-01T03:03:43;99345.81;;;13.77;76.12
56400;BME280;42298;53.638;9.876;2023-04-01T03:06:11;99327.63;;;13.57;75.92
56400;BME280;42298;53.638;9.876;2023-04-01T03:08:37;99356.28;;;13.68;75.94
56400;BME280;42298;53.638;9.876;2023-04-01T03:11:03;99361.25;;;13.78;76.12
56400;BME280;42298;53.638;9.876;2023-04-01T03:13:28;99336.41;;;13.63;75.98
56400;BME280;42298;53.638;9.876;2023-04-01T03:15:53;99363.50;;;13.73;75.99
56400;BME280;42298;53.638;9.876;2023-04-01T03:18:19;99357.09;;;13.69;76.14
56400;BME280;42298;53.638;9.876;2023-04-01T03:20:45;99359.41;;;13.67;76.22
56400;BME280;42298;53.638;9.876;2023-04-01T03:23:11;99358.56;;;13.63;75.91
56400;BME280;42298;53.638;9.876;2023-04-01T03:25:36;99362.72;;;13.72;76.33
56400;BME280;42298;53.638;9.876;2023-04-01T03:28:02;99364.91;;;13.63;75.80
56400;BME280;42298;53.638;9.876;2023-04-01T03:30:27;99365.63;;;13.60;76.45
56400;BME280;42298;53.638;9.876;2023-04-01T03:32:54;99354.34;;;13.50;77.05
56400;BME280;42298;53.638;9.876;2023-04-01T03:35:20;99371.22;;;13.64;76.92
56400;BME280;42298;53.638;9.876;2023-04-01T03:37:45;99343.44;;;13.41;76.60
56400;BME280;42298;53.638;9.876;2023-04-01T03:40:11;99363.84;;;13.52;76.14
56400;BME280;42298;53.638;9.876;2023-04-01T03:42:36;99371.06;;;13.57;76.78
56400;BME280;42298;53.638;9.876;2023-04-01T03:45:03;99368.03;;;13.62;76.67
56400;BME280;42298;53.638;9.876;2023-04-01T03:47:28;99377.03;;;13.59;76.54
56400;BME280;42298;53.638;9.876;2023-04-01T03:49:54;99363.63;;;13.41;76.70
56400;BME280;42298;53.638;9.876;2023-04-01T03:52:19;99357.13;;;13.34;76.62
56400;BME280;42298;53.638;9.876;2023-04-01T03:54:45;99382.41;;;13.52;77.19
56400;BME280;42298;53.638;9.876;2023-04-01T03:57:10;99371.09;;;13.41;76.94
56400;BME280;42298;53.638;9.876;2023-04-01T03:59:35;99386.69;;;13.49;76.80
56400;BME280;42298;53.638;9.876;2023-04-01T04:02:01;99383.50;;;13.47;76.92
56400;BME280;42298;53.638;9.876;2023-04-01T04:04:27;99385.91;;;13.48;76.71
56400;BME280;42298;53.638;9.876;2023-04-01T04:06:53;99383.13;;;13.48;76.71
56400;BME280;42298;53.638;9.876;2023-04-01T04:09:18;99388.16;;;13.43;77.17
56400;BME280;42298;53.638;9.876;2023-04-01T04:11:43;99385.66;;;13.38;77.09
56400;BME280;42298;53.638;9.876;2023-04-01T04:14:09;99384.88;;;13.37;77.29
56400;BME280;42298;53.638;9.876;2023-04-01T04:16:35;99393.69;;;13.43;76.64
56400;BME280;42298;53.638;9.876;2023-04-01T04:19:03;99405.25;;;13.48;76.97
56400;BME280;42298;53.638;9.876;2023-04-01T04:21:29;99376.59;;;13.37;77.34
56400;BME280;42298;53.638;9.876;2023-04-01T04:23:54;99400.69;;;13.56;76.63
56400;BME280;42298;53.638;9.876;2023-04-01T04:26:20;99405.44;;;13.56;76.34
56400;BME280;42298;53.638;9.876;2023-04-01T04:28:45;99394.13;;;13.45;76.90
56400;BME280;42298;53.638;9.876;2023-04-01T04:31:11;99406.50;;;13.51;76.43
56400;BME280;42298;53.638;9.876;2023-04-01T04:33:36;99405.78;;;13.54;76.70
56400;BME280;42298;53.638;9.876;2023-04-01T04:36:03;99411.03;;;13.59;76.99
56400;BME280;42298;53.638;9.876;2023-04-01T04:38:28;99421.66;;;13.57;77.42
56400;BME280;42298;53.638;9.876;2023-04-01T04:40:54;99416.03;;;13.54;77.40
56400;BME280;42298;53.638;9.876;2023-04-01T04:43:20;99420.69;;;13.50;76.73
56400;BME280;42298;53.638;9.876;2023-04-01T04:45:45;99409.41;;;13.39;76.85
56400;BME280;42298;53.638;9.876;2023-04-01T04:48:12;99432.88;;;13.29;76.58
56400;BME280;42298;53.638;9.876;2023-04-01T04:50:41;99420.31;;;12.85;76.04
56400;BME280;42298;53.638;9.876;2023-04-01T04:53:09;99435.56;;;12.79;76.29
56400;BME280;42298;53.638;9.876;2023-04-01T04:55:35;99429.13;;;12.60;76.62
56400;BME280;42298;53.638;9.876;2023-04-01T04:58:00;99426.41;;;12.32;76.64
56400;BME280;42298;53.638;9.876;2023-04-01T05:00:26;99409.56;;;11.94;77.20
56400;BME280;42298;53.638;9.876;2023-04-01T05:02:51;99437.81;;;12.03;77.54
56400;BME280;42298;53.638;9.876;2023-04-01T05:05:17;99445.88;;;11.96;77.12
56400;BME280;42298;53.638;9.876;2023-04-01T05:07:42;99432.25;;;11.76;78.17
56400;BME280;42298;53.638;9.876;2023-04-01T05:10:07;99452.59;;;11.83;77.18
56400;BME280;42298;53.638;9.876;2023-04-01T05:12:33;99455.16;;;11.52;77.82
56400;BME280;42298;53.638;9.876;2023-04-01T05:15:04;99457.22;;;11.55;78.38
56400;BME280;42298;53.638;9.876;2023-04-01T05:17:30;99459.38;;;11.49;78.07
56400;BME280;42298;53.638;9.876;2023-04-01T05:19:56;99458.47;;;11.45;78.23
56400;BME280;42298;53.638;9.876;2023-04-01T05:22:22;99453.53;;;11.39;78.18
56400;BME280;42298;53.638;9.876;2023-04-01T05:24:47;99454.94;;;11.33;78.26
56400;BME280;42298;53.638;9.876;2023-04-01T05:27:12;99464.69;;;11.42;77.68
56400;BME280;42298;53.638;9.876;2023-04-01T05:29:38;99459.78;;;11.12;77.81
56400;BME280;42298;53.638;9.876;2023-04-01T05:32:04;99465.16;;;11.08;78.60
56400;BME280;42298;53.638;9.876;2023-04-01T05:34:29;99454.72;;;11.02;78.60
56400;BME280;42298;53.638;9.876;2023-04-01T05:36:54;99477.78;;;11.09;77.91
56400;BME280;42298;53.638;9.876;2023-04-01T05:39:20;99469.63;;;11.01;78.34
56400;BME280;42298;53.638;9.876;2023-04-01T05:41:45;99454.94;;;10.73;78.14
56400;BME280;42298;53.638;9.876;2023-04-01T05:44:12;99458.03;;;10.83;78.04
56400;BME280;42298;53.638;9.876;2023-04-01T05:46:38;99470.06;;;10.67;77.84
56400;BME280;42298;53.638;9.876;2023-04-01T05:49:05;99465.94;;;10.73;78.04
56400;BME280;42298;53.638;9.876;2023-04-01T05:51:32;99482.44;;;10.61;78.18
56400;BME280;42298;53.638;9.876;2023-04-01T05:53:58;99466.31;;;10.51;78.00
56400;BME280;42298;53.638;9.876;2023-04-01T05:56:23;99481.91;;;10.47;78.68
56400;BME280;42298;53.638;9.876;2023-04-01T05:58:51;99488.34;;;10.51;78.53
56400;BME280;42298;53.638;9.876;2023-04-01T06:01:18;99522.69;;;10.65;78.27
56400;BME280;42298;53.638;9.876;2023-04-01T06:03:45;99510.84;;;10.53;77.74
56400;BME280;42298;53.638;9.876;2023-04-01T06:06:16;99500.81;;;10.36;77.92
56400;BME280;42298;53.638;9.876;2023-04-01T06:08:44;99501.00;;;10.31;77.87
56400;BME280;42298;53.638;9.876;2023-04-01T06:31:24;99558.00;;;10.10;77.60
56400;BME280;42298;53.638;9.876;2023-04-01T06:34:02;99563.53;;;10.02;77.85
56400;BME280;42298;53.638;9.876;2023-04-01T06:39:30;99582.88;;;10.14;78.17
56400;BME280;42298;53.638;9.876;2023-04-01T06:48:48;99590.94;;;10.19;78.30
56400;BME280;42298;53.638;9.876;2023-04-01T06:54:04;99583.25;;;9.83;78.01
56400;BME280;42298;53.638;9.876;2023-04-01T06:56:32;99573.69;;;9.81;78.21
56400;BME280;42298;53.638;9.876;2023-04-01T06:59:10;99603.25;;;9.92;77.64
56400;BME280;42298;53.638;9.876;2023-04-01T07:01:50;99579.59;;;9.70;78.03
56400;BME280;42298;53.638;9.876;2023-04-01T07:04:28;99602.50;;;9.83;77.52
56400;BME280;42298;53.638;9.876;2023-04-01T07:07:01;99586.69;;;9.71;77.71
56400;BME280;42298;53.638;9.876;2023-04-01T07:09:41;99608.31;;;9.82;77.68
56400;BME280;42298;53.638;9.876;2023-04-01T07:15:03;99599.16;;;9.69;77.30
56400;BME280;42298;53.638;9.876;2023-04-01T07:17:35;99620.75;;;9.79;77.25
56400;BME280;42298;53.638;9.876;2023-04-01T07:20:13;99637.91;;;9.85;77.37
56400;BME280;42298;53.638;9.876;2023-04-01T07:22:45;99655.16;;;9.94;76.92
56400;BME280;42298;53.638;9.876;2023-04-01T07:27:38;99615.97;;;9.67;77.44
56400;BME280;42298;53.638;9.876;2023-04-01T07:30:13;99622.72;;;9.79;77.25
56400;BME280;42298;53.638;9.876;2023-04-01T07:32:45;99625.50;;;9.70;76.64
56400;BME280;42298;53.638;9.876;2023-04-01T07:40:47;99677.72;;;9.70;77.35
56400;BME280;42298;53.638;9.876;2023-04-01T07:46:17;99687.94;;;9.69;76.72
56400;BME280;42298;53.638;9.876;2023-04-01T07:49:01;99650.34;;;9.44;76.49
56400;BME280;42298;53.638;9.876;2023-04-01T07:51:38;99688.22;;;9.77;77.56
56400;BME280;42298;53.638;9.876;2023-04-01T07:57:03;99678.06;;;9.68;76.78
56400;BME280;42298;53.638;9.876;2023-04-01T07:59:41;99700.25;;;9.55;76.63
56400;BME280;42298;53.638;9.876;2023-04-01T08:13:33;99694.63;;;9.43;76.97
56400;BME280;42298;53.638;9.876;2023-04-01T08:16:32;99742.75;;;9.66;76.27
56400;BME280;42298;53.638;9.876;2023-04-01T08:19:14;99734.88;;;9.47;76.75
56400;BME280;42298;53.638;9.876;2023-04-01T08:21:47;99716.81;;;9.29;76.58
56400;BME280;42298;53.638;9.876;2023-04-01T08:24:41;99740.19;;;9.61;76.95
56400;BME280;42298;53.638;9.876;2023-04-01T08:27:21;99753.28;;;9.55;76.09
56400;BME280;42298;53.638;9.876;2023-04-01T08:29:54;99740.56;;;9.42;76.46
56400;BME280;42298;53.638;9.876;2023-04-01T08:32:26;99761.25;;;9.48;76.93
56400;BME280;42298;53.638;9.876;2023-04-01T08:35:07;99757.31;;;9.58;76.64
56400;BME280;42298;53.638;9.876;2023-04-01T08:37:36;99744.75;;;9.40;76.14
56400;BME280;42298;53.638;9.876;2023-04-01T09:22:42;99785.31;;;9.51;75.92
56400;BME280;42298;53.638;9.876;2023-04-01T09:28:20;99800.00;;;9.64;74.73
56400;BME280;42298;53.638;9.876;2023-04-01T09:31:12;99847.63;;;10.02;75.11
56400;BME280;42298;53.638;9.876;2023-04-01T09:34:01;99806.09;;;9.87;74.96
56400;BME280;42298;53.638;9.876;2023-04-01T09:36:47;99820.16;;;9.85;74.27
56400;BME280;42298;53.638;9.876;2023-04-01T09:39:34;99861.56;;;9.89;74.60
56400;BME280;42298;53.638;9.876;2023-04-01T09:47:28;99873.88;;;9.83;74.54
56400;BME280;42298;53.638;9.876;2023-04-01T09:52:40;99870.31;;;9.82;74.50
56400;BME280;42298;53.638;9.876;2023-04-01T10:09:20;99899.78;;;9.82;74.12
56400;BME280;42298;53.638;9.876;2023-04-01T10:12:19;99903.31;;;9.99;74.67
56400;BME280;42298;53.638;9.876;2023-04-01T10:14:54;99909.28;;;9.93;73.48
56400;BME280;42298;53.638;9.876;2023-04-01T10:23:14;99919.66;;;9.79;73.90
56400;BME280;42298;53.638;9.876;2023-04-01T10:34:41;99932.44;;;10.09;73.17
56400;BME280;42298;53.638;9.876;2023-04-01T10:37:23;99944.25;;;10.09;73.31
56400;BME280;42298;53.638;9.876;2023-04-01T10:40:13;99947.31;;;9.91;73.16
56400;BME280;42298;53.638;9.876;2023-04-01T10:45:49;99939.06;;;9.99;73.00
56400;BME280;42298;53.638;9.876;2023-04-01T10:51:42;99938.41;;;10.02;74.57
56400;BME280;42298;53.638;9.876;2023-04-01T10:54:40;99933.75;;;9.77;73.24
56400;BME280;42298;53.638;9.876;2023-04-01T11:06:20;99967.22;;;9.96;74.24
56400;BME280;42298;53.638;9.876;2023-04-01T11:09:15;99935.81;;;9.89;73.96
56400;BME280;42298;53.638;9.876;2023-04-01T11:12:33;99975.31;;;10.10;72.85
56400;BME280;42298;53.638;9.876;2023-04-01T11:21:03;99994.56;;;10.10;73.32
56400;BME280;42298;53.638;9.876;2023-04-01T11:27:15;99980.13;;;10.30;73.11
56400;BME280;42298;53.638;9.876;2023-04-01T11:29:48;100004.31;;;10.07;73.11
56400;BME280;42298;53.638;9.876;2023-04-01T11:32:33;100019.94;;;9.90;73.12
56400;BME280;42298;53.638;9.876;2023-04-01T11:35:19;99993.72;;;9.84;73.58
56400;BME280;42298;53.638;9.876;2023-04-01T11:38:01;100019.47;;;9.88;73.50
56400;BME280;42298;53.638;9.876;2023-04-01T11:40:42;100001.84;;;9.80;73.42
56400;BME280;42298;53.638;9.876;2023-04-01T11:43:18;100005.88;;;9.83;73.31
56400;BME280;42298;53.638;9.876;2023-04-01T11:46:07;100026.22;;;9.56;72.90
56400;BME280;42298;53.638;9.876;2023-04-01T11:51:54;100048.03;;;9.61;73.55
56400;BME280;42298;53.638;9.876;2023-04-01T12:00:31;100052.28;;;9.76;73.75
56400;BME280;42298;53.638;9.876;2023-04-01T12:03:21;100056.00;;;9.80;73.32
56400;BME280;42298;53.638;9.876;2023-04-01T12:09:24;100071.34;;;9.63;73.07
56400;BME280;42298;53.638;9.876;2023-04-01T12:15:13;100079.22;;;9.56;73.84
56400;BME280;42298;53.638;9.876;2023-04-01T12:28:50;100085.56;;;9.57;72.40
56400;BME280;42298;53.638;9.876;2023-04-01T12:40:24;100094.66;;;9.35;70.38
56400;BME280;42298;53.638;9.876;2023-04-01T12:45:47;100137.59;;;9.53;70.55
56400;BME280;42298;53.638;9.876;2023-04-01T12:50:57;100142.09;;;9.41;70.86
56400;BME280;42298;53.638;9.876;2023-04-01T12:56:54;100139.81;;;9.43;71.63
56400;BME280;42298;53.638;9.876;2023-04-01T13:05:15;100137.94;;;9.21;71.55
56400;BME280;42298;53.638;9.876;2023-04-01T13:07:58;100168.41;;;9.42;71.33
56400;BME280;42298;53.638;9.876;2023-04-01T13:15:52;100171.41;;;9.23;70.81
56400;BME280;42298;53.638;9.876;2023-04-01T13:23:48;100189.91;;;9.09;70.87
56400;BME280;42298;53.638;9.876;2023-04-01T13:26:27;100192.34;;;9.11;71.78
56400;BME280;42298;53.638;9.876;2023-04-01T13:29:23;100200.31;;;8.99;71.78
56400;BME280;42298;53.638;9.876;2023-04-01T13:35:08;100207.69;;;8.90;72.19
56400;BME280;42298;53.638;9.876;2023-04-01T13:40:58;100222.56;;;8.89;71.79
56400;BME280;42298;53.638;9.876;2023-04-01T13:43:45;100226.34;;;9.01;72.26
56400;BME280;42298;53.638;9.876;2023-04-01T13:56:42;100237.16;;;8.98;70.47
56400;BME280;42298;53.638;9.876;2023-04-01T13:59:38;100243.03;;;9.05;70.02
56400;BME280;42298;53.638;9.876;2023-04-01T14:04:53;100287.22;;;8.95;70.04
56400;BME280;42298;53.638;9.876;2023-04-01T14:10:36;100272.28;;;8.87;69.68
56400;BME280;42298;53.638;9.876;2023-04-01T14:13:07;100267.69;;;8.96;69.99
56400;BME280;42298;53.638;9.876;2023-04-01T14:18:29;100283.66;;;8.94;70.64
56400;BME280;42298;53.638;9.876;2023-04-01T14:21:18;100275.28;;;8.99;69.83
56400;BME280;42298;53.638;9.876;2023-04-01T14:24:00;100274.16;;;9.00;70.41
56400;BME280;42298;53.638;9.876;2023-04-01T14:35:25;100305.81;;;8.98;68.96
56400;BME280;42298;53.638;9.876;2023-04-01T14:40:56;100307.53;;;8.94;68.51
56400;BME280;42298;53.638;9.876;2023-04-01T14:52:15;100318.50;;;9.29;69.83
56400;BME280;42298;53.638;9.876;2023-04-01T14:54:44;100311.13;;;9.16;70.28
56400;BME280;42298;53.638;9.876;2023-04-01T14:57:20;100293.28;;;9.05;70.03
56400;BME280;42298;53.638;9.876;2023-04-01T14:59:59;100340.97;;;9.09;69.59
56400;BME280;42298;53.638;9.876;2023-04-01T15:08:17;100360.63;;;8.89;70.02
56400;BME280;42298;53.638;9.876;2023-04-01T15:18:41;100345.72;;;8.55;70.55
56400;BME280;42298;53.638;9.876;2023-04-01T15:27:05;100391.97;;;8.75;70.17
56400;BME280;42298;53.638;9.876;2023-04-01T15:33:02;100379.56;;;8.50;69.68
56400;BME280;42298;53.638;9.876;2023-04-01T15:35:46;100403.34;;;8.55;68.89
56400;BME280;42298;53.638;9.876;2023-04-01T15:38:36;100406.84;;;8.60;69.37
56400;BME280;42298;53.638;9.876;2023-04-01T15:41:40;100379.56;;;8.23;69.43
56400;BME280;42298;53.638;9.876;2023-04-01T15:46:56;100405.38;;;8.36;69.61
56400;BME280;42298;53.638;9.876;2023-04-01T15:52:21;100431.53;;;8.60;69.64
56400;BME280;42298;53.638;9.876;2023-04-01T16:03:18;100448.00;;;8.47;68.78
56400;BME280;42298;53.638;9.876;2023-04-01T16:05:55;100459.44;;;8.35;68.96
56400;BME280;42298;53.638;9.876;2023-04-01T16:14:25;100466.56;;;8.36;69.79
56400;BME280;42298;53.638;9.876;2023-04-01T16:19:53;100462.88;;;8.27;70.32
56400;BME280;42298;53.638;9.876;2023-04-01T16:27:53;100477.72;;;8.08;70.85
56400;BME280;42298;53.638;9.876;2023-04-01T16:30:32;100467.84;;;7.93;71.13
56400;BME280;42298;53.638;9.876;2023-04-01T16:33:04;100511.38;;;8.13;70.98
56400;BME280;42298;53.638;9.876;2023-04-01T16:35:57;100516.06;;;8.13;69.97
56400;BME280;42298;53.638;9.876;2023-04-01T16:38:33;100514.94;;;8.14;70.18
56400;BME280;42298;53.638;9.876;2023-04-01T16:41:16;100505.91;;;7.95;70.77
56400;BME280;42298;53.638;9.876;2023-04-01T16:46:34;100517.38;;;8.15;70.29
56400;BME280;42298;53.638;9.876;2023-04-01T17:04:42;100583.44;;;8.00;70.16
56400;BME280;42298;53.638;9.876;2023-04-01T17:10:08;100581.44;;;7.87;69.59
56400;BME280;42298;53.638;9.876;2023-04-01T17:13:06;100568.22;;;7.70;69.81
56400;BME280;42298;53.638;9.876;2023-04-01T17:16:01;100585.78;;;7.88;69.74
56400;BME280;42298;53.638;9.876;2023-04-01T17:18:37;100603.81;;;7.94;69.54
56400;BME280;42298;53.638;9.876;2023-04-01T17:24:23;100582.06;;;7.60;69.27
56400;BME280;42298;53.638;9.876;2023-04-01T17:27:02;100611.03;;;7.66;69.40
56400;BME280;42298;53.638;9.876;2023-04-01T17:32:48;100614.94;;;7.60;69.06
56400;BME280;42298;53.638;9.876;2023-04-01T17:35:22;100621.19;;;7.66;68.77
56400;BME280;42298;53.638;9.876;2023-04-01T17:38:17;100647.34;;;7.77;68.08
56400;BME280;42298;53.638;9.876;2023-04-01T17:46:19;100642.88;;;7.39;67.24
56400;BME280;42298;53.638;9.876;2023-04-01T17:49:00;100671.91;;;7.63;67.68
56400;BME280;42298;53.638;9.876;2023-04-01T17:54:05;100670.00;;;7.64;67.07
56400;BME280;42298;53.638;9.876;2023-04-01T17:57:13;100659.06;;;7.59;67.07
56400;BME280;42298;53.638;9.876;2023-04-01T18:00:03;100690.03;;;7.83;67.08
56400;BME280;42298;53.638;9.876;2023-04-01T18:05:24;100712.63;;;7.75;66.78
56400;BME280;42298;53.638;9.876;2023-04-01T18:08:02;100694.09;;;7.38;66.89
56400;BME280;42298;53.638;9.876;2023-04-01T18:13:33;100692.63;;;7.51;66.60
56400;BME280;42298;53.638;9.876;2023-04-01T18:19:14;100744.44;;;7.47;66.27
56400;BME280;42298;53.638;9.876;2023-04-01T18:21:50;100718.00;;;7.04;66.76
56400;BME280;42298;53.638;9.876;2023-04-01T18:24:42;100742.00;;;7.41;66.90
56400;BME280;42298;53.638;9.876;2023-04-01T18:27:31;100743.47;;;7.33;65.78
56400;BME280;42298;53.638;9.876;2023-04-01T18:30:31;100760.41;;;7.07;65.90
56400;BME280;42298;53.638;9.876;2023-04-01T18:33:05;100740.44;;;7.06;66.18
56400;BME280;42298;53.638;9.876;2023-04-01T18:35:54;100788.78;;;7.21;65.89
56400;BME280;42298;53.638;9.876;2023-04-01T18:38:38;100778.63;;;7.21;65.30
56400;BME280;42298;53.638;9.876;2023-04-01T18:41:28;100802.78;;;7.14;65.12
56400;BME280;42298;53.638;9.876;2023-04-01T18:44:27;100816.81;;;7.08;65.32
56400;BME280;42298;53.638;9.876;2023-04-01T18:47:23;100802.13;;;6.94;65.32
56400;BME280;42298;53.638;9.876;2023-04-01T18:50:11;100795.13;;;6.78;64.88
56400;BME280;42298;53.638;9.876;2023-04-01T18:52:43;100794.56;;;6.81;64.26
56400;BME280;42298;53.638;9.876;2023-04-01T18:57:49;100840.06;;;7.10;64.17
56400;BME280;42298;53.638;9.876;2023-04-01T19:00:20;100833.28;;;7.03;64.28
56400;BME280;42298;53.638;9.876;2023-04-01T19:05:48;100819.72;;;6.83;64.17
56400;BME280;42298;53.638;9.876;2023-04-01T19:30:54;100889.25;;;6.82;62.68
56400;BME280;42298;53.638;9.876;2023-04-01T19:33:35;100900.19;;;6.87;62.04
56400;BME280;42298;53.638;9.876;2023-04-01T19:39:27;100903.44;;;6.89;62.57
56400;BME280;42298;53.638;9.876;2023-04-01T19:44:56;100895.84;;;6.76;62.18
56400;BME280;42298;53.638;9.876;2023-04-01T19:53:59;100936.50;;;7.02;61.68
56400;BME280;42298;53.638;9.876;2023-04-01T19:57:13;100909.81;;;6.74;62.12
56400;BME280;42298;53.638;9.876;2023-04-01T20:53:07;101064.41;;;5.76;61.15
56400;BME280;42298;53.638;9.876;2023-04-01T21:04:42;101086.31;;;5.81;61.45
56400;BME280;42298;53.638;9.876;2023-04-01T21:07:25;101072.56;;;5.61;61.65
56400;BME280;42298;53.638;9.876;2023-04-01T21:13:14;101097.19;;;5.71;61.87
56400;BME280;42298;53.638;9.876;2023-04-01T21:26:53;101121.19;;;5.59;62.26
56400;BME280;42298;53.638;9.876;2023-04-01T21:32:36;101124.88;;;5.33;62.52
56400;BME280;42298;53.638;9.876;2023-04-01T21:35:27;101129.84;;;5.46;62.55
56400;BME280;42298;53.638;9.876;2023-04-01T21:38:28;101142.38;;;5.37;62.28
56400;BME280;42298;53.638;9.876;2023-04-01T21:41:08;101134.94;;;5.23;62.35
56400;BME280;42298;53.638;9.876;2023-04-01T21:54:49;101175.09;;;5.27;62.47
56400;BME280;42298;53.638;9.876;2023-04-01T22:00:30;101161.59;;;5.06;61.83
56400;BME280;42298;53.638;9.876;2023-04-01T22:06:45;101187.41;;;5.30;62.19
56400;BME280;42298;53.638;9.876;2023-04-01T22:08:59;101187.91;;;5.27;62.09
56400;BME280;42298;53.638;9.876;2023-04-01T22:11:46;101183.50;;;5.16;62.18
56400;BME280;42298;53.638;9.876;2023-04-01T22:17:21;101201.69;;;5.00;62.96
56400;BME280;42298;53.638;9.876;2023-04-01T22:20:13;101213.75;;;5.09;63.09
56400;BME280;42298;53.638;9.876;2023-04-01T22:25:34;101220.00;;;5.05;62.88